Time;durP1;ratioP1;P1;durP2;ratioP2;P2;SDS_P1;SDS_P2;PMS_P1;PMS_P2;Temp;Humidity;BMP_temperature;BMP_pressure;BME280_temperature;BME280_humidity;BME280_pressure;Samples;Min_cycle;Max_cycle;Signal;HPM_P1;HPM_P2
2023/07/28 00:00:46;;;;;;;3.25;2.95;;;;;;;14.89;68.98;94682.41;5078591;28;20662;-75
2023/07/28 00:03:12;;;;;;;4.22;3.03;;;;;;;14.85;68.72;94679.59;5068929;28;20238;-74
2023/07/28 00:05:39;;;;;;;2.80;2.60;;;;;;;14.80;68.85;94679.84;5069114;28;20607;-74
2023/07/28 00:08:06;;;;;;;4.93;2.78;;;;;;;14.66;69.76;94682.22;5069090;28;20206;-73
2023/07/28 00:10:33;;;;;;;3.80;2.78;;;;;;;14.57;70.22;94670.72;5069023;28;20547;-74
2023/07/28 00:13:02;;;;;;;3.70;2.50;;;;;;;14.49;71.18;94677.13;5068900;28;20203;-73
2023/07/28 00:15:29;;;;;;;2.78;2.50;;;;;;;14.43;71.65;94675.81;5069146;28;20281;-74
2023/07/28 00:17:57;;;;;;;3.63;2.55;;;;;;;14.34;71.75;94680.63;5068952;28;20210;-74
2023/07/28 00:20:24;;;;;;;2.83;2.55;;;;;;;14.28;72.02;94673.81;5069061;28;20336;-74
2023/07/28 00:22:51;;;;;;;3.95;3.00;;;;;;;14.18;72.69;94678.66;5068664;28;20724;-74
2023/07/28 00:25:17;;;;;;;3.25;2.13;;;;;;;14.29;72.52;94672.69;5082389;28;20214;-74
2023/07/28 00:27:44;;;;;;;3.13;2.78;;;;;;;14.25;72.21;94669.84;5068705;28;20210;-74
2023/07/28 00:30:12;;;;;;;5.00;3.35;;;;;;;14.12;72.38;94671.06;5068767;28;20268;-74
2023/07/28 00:32:39;;;;;;;2.72;2.53;;;;;;;14.01;72.67;94670.78;5068351;28;20242;-74
2023/07/28 00:35:08;;;;;;;5.15;2.70;;;;;;;14.00;72.91;94666.47;5068498;28;20213;-74
2023/07/28 00:37:35;;;;;;;5.15;2.80;;;;;;;13.91;72.87;94676.75;5068233;28;20570;-74
2023/07/28 00:40:02;;;;;;;7.43;3.17;;;;;;;13.82;73.56;94685.03;5071028;28;20202;-74
2023/07/28 00:42:29;;;;;;;4.50;3.35;;;;;;;13.77;74.30;94687.22;5072410;28;20233;-74
2023/07/28 00:44:56;;;;;;;4.07;2.78;;;;;;;13.81;74.25;94678.00;5072347;28;20203;-74
2023/07/28 00:47:23;;;;;;;3.53;2.78;;;;;;;13.75;73.58;94678.63;5067191;28;20198;-74
2023/07/28 00:49:49;;;;;;;3.60;2.80;;;;;;;13.76;73.53;94680.19;5072837;28;20206;-74
2023/07/28 00:52:18;;;;;;;3.78;3.10;;;;;;;13.80;73.29;94672.94;5072715;28;20203;-74
2023/07/28 00:54:44;;;;;;;4.28;2.97;;;;;;;13.69;74.47;94674.53;5085761;28;20268;-74
2023/07/28 00:57:12;;;;;;;3.42;2.90;;;;;;;13.60;74.46;94676.63;5071883;28;20205;-74
2023/07/28 00:59:38;;;;;;;4.47;4.07;;;;;;;13.56;74.81;94675.72;5075353;28;20248;-74
2023/07/28 01:02:06;;;;;;;5.47;4.22;;;;;;;13.58;75.11;94679.69;5078875;28;20203;-74
2023/07/28 01:04:33;;;;;;;4.53;3.28;;;;;;;13.62;75.15;94677.06;5072283;28;20681;-74
2023/07/28 01:07:07;;;;;;;4.82;3.22;;;;;;;13.69;73.71;94679.97;5072293;28;20237;-74
2023/07/28 01:09:44;;;;;;;4.75;3.35;;;;;;;13.60;74.20;94679.34;5072283;28;20212;-74
2023/07/28 01:12:11;;;;;;;5.85;3.38;;;;;;;13.50;73.80;94678.69;5071176;28;20566;-74
2023/07/28 01:14:37;;;;;;;6.03;3.40;;;;;;;13.52;74.01;94681.88;5072248;28;20215;-74
2023/07/28 01:17:05;;;;;;;5.15;3.28;;;;;;;13.37;74.32;94679.88;5072016;28;20210;-76
2023/07/28 01:19:32;;;;;;;6.93;4.72;;;;;;;13.32;74.66;94682.81;5071911;28;20602;-75
2023/07/28 01:22:14;;;;;;;6.35;4.40;;;;;;;13.30;74.28;94674.19;5071930;28;20621;-74
2023/07/28 01:24:52;;;;;;;4.68;4.15;;;;;;;13.29;73.60;94677.25;5072028;28;20222;-74
2023/07/28 01:27:21;;;;;;;5.88;4.35;;;;;;;13.21;74.05;94676.25;5058945;28;20199;-74
2023/07/28 01:29:49;;;;;;;5.68;4.40;;;;;;;13.10;76.18;94680.56;5072846;28;20227;-74
2023/07/28 01:32:15;;;;;;;4.38;3.97;;;;;;;13.08;74.81;94672.75;5082796;28;20230;-74
2023/07/28 01:34:42;;;;;;;4.63;4.22;;;;;;;13.06;74.57;94674.22;5072213;28;20203;-73
2023/07/28 01:37:09;;;;;;;4.78;4.22;;;;;;;12.91;75.20;94677.63;5081886;28;20199;-73
2023/07/28 01:39:36;;;;;;;5.20;4.13;;;;;;;12.84;75.86;94678.19;5070240;28;20289;-73
2023/07/28 01:42:03;;;;;;;6.22;4.70;;;;;;;12.85;75.72;94679.75;5070097;28;20210;-74
2023/07/28 01:44:31;;;;;;;5.15;4.65;;;;;;;12.88;75.86;94678.28;5070110;28;20231;-74
2023/07/28 01:46:58;;;;;;;5.68;4.40;;;;;;;12.73;77.11;94677.03;5074370;28;20210;-74
2023/07/28 01:49:25;;;;;;;5.18;4.68;;;;;;;12.63;78.01;94672.88;5074371;28;20299;-73
2023/07/28 01:51:51;;;;;;;5.07;4.68;;;;;;;12.59;78.49;94677.38;5070150;28;20203;-73
2023/07/28 01:54:18;;;;;;;5.30;4.80;;;;;;;12.45;79.17;94682.34;5070106;28;20217;-73
2023/07/28 01:56:45;;;;;;;6.43;4.93;;;;;;;12.45;79.13;94683.13;5069909;28;20210;-74
2023/07/28 01:59:13;;;;;;;7.45;5.05;;;;;;;12.50;78.66;94684.84;5069984;28;20202;-73
2023/07/28 02:01:41;;;;;;;5.32;3.53;;;;;;;12.58;78.51;94686.66;5080626;28;20207;-74
2023/07/28 02:04:08;;;;;;;3.92;2.97;;;;;;;12.66;77.75;94687.69;5070111;28;20230;-73
2023/07/28 02:06:34;;;;;;;5.95;3.25;;;;;;;12.81;77.21;94681.59;5070446;28;20364;-74
2023/07/28 02:09:01;;;;;;;4.65;3.42;;;;;;;12.78;77.36;94680.34;5069526;28;20195;-73
2023/07/28 02:11:28;;;;;;;7.78;3.05;;;;;;;12.80;77.10;94678.09;5070109;28;20211;-73
2023/07/28 02:13:55;;;;;;;5.57;3.17;;;;;;;12.85;76.92;94679.00;5069848;28;20215;-73
2023/07/28 02:16:22;;;;;;;5.85;3.42;;;;;;;12.82;76.77;94675.03;5069829;28;20195;-74
2023/07/28 02:18:50;;;;;;;4.80;3.50;;;;;;;12.87;76.42;94680.22;5069420;28;20286;-74
2023/07/28 02:21:17;;;;;;;4.03;3.15;;;;;;;12.84;76.36;94677.41;5069303;28;20233;-73
2023/07/28 02:23:43;;;;;;;4.43;2.92;;;;;;;12.84;76.27;94682.84;5069464;28;20241;-74
2023/07/28 02:26:10;;;;;;;6.40;3.25;;;;;;;12.81;76.18;94687.81;5070098;28;20233;-73
2023/07/28 02:28:37;;;;;;;3.28;2.85;;;;;;;12.77;76.47;94689.63;5069680;28;20199;-74
2023/07/28 02:31:04;;;;;;;3.25;2.90;;;;;;;12.84;76.50;94685.56;5026341;28;1240930;-73
2023/07/28 02:33:35;;;;;;;5.18;3.22;;;;;;;12.89;76.31;94685.31;5070540;28;20298;-73
2023/07/28 02:36:03;;;;;;;7.55;3.25;;;;;;;12.92;76.17;94690.88;5071017;28;20200;-74
2023/07/28 02:38:30;;;;;;;4.93;3.30;;;;;;;12.89;75.99;94679.88;5070422;28;20199;-73
2023/07/28 02:40:57;;;;;;;4.57;3.38;;;;;;;12.88;76.19;94684.53;5071039;28;20206;-73
2023/07/28 02:43:23;;;;;;;3.65;3.28;;;;;;;12.83;76.08;94687.50;5070187;28;20256;-74
2023/07/28 02:45:55;;;;;;;3.70;3.03;;;;;;;12.86;75.93;94688.72;5065704;28;20211;-74
2023/07/28 02:48:22;;;;;;;3.30;2.97;;;;;;;12.89;75.75;94690.75;5057347;28;20194;-74
2023/07/28 02:50:51;;;;;;;3.55;3.00;;;;;;;12.85;75.91;94681.72;5070170;28;20209;-73
2023/07/28 02:53:20;;;;;;;4.32;3.92;;;;;;;12.80;75.97;94686.25;5070081;28;20206;-73
2023/07/28 02:55:48;;;;;;;3.63;3.15;;;;;;;12.74;76.07;94684.88;5070161;28;20195;-73
2023/07/28 02:58:15;;;;;;;3.38;2.80;;;;;;;12.74;76.41;94682.16;5070327;28;20261;-74
2023/07/28 03:00:43;;;;;;;5.05;3.30;;;;;;;12.77;75.91;94676.03;5069907;28;20226;-74
2023/07/28 03:03:11;;;;;;;3.70;3.08;;;;;;;12.74;75.65;94682.16;5069460;28;20214;-74
2023/07/28 03:05:39;;;;;;;3.53;3.00;;;;;;;12.72;75.52;94681.69;5069263;28;20206;-74
2023/07/28 03:08:06;;;;;;;4.78;3.00;;;;;;;12.88;75.13;94691.88;5069480;28;20203;-74
2023/07/28 03:10:35;;;;;;;5.20;3.13;;;;;;;12.93;75.38;94691.66;5069233;28;20209;-74
2023/07/28 03:13:01;;;;;;;3.83;2.90;;;;;;;12.85;75.49;94692.59;5080248;28;20289;-74
2023/07/28 03:15:29;;;;;;;3.97;2.95;;;;;;;12.84;75.25;94685.56;5073041;28;20577;-74
2023/07/28 03:17:55;;;;;;;3.58;2.70;;;;;;;12.75;75.09;94689.16;5069761;28;20642;-74
2023/07/28 03:20:22;;;;;;;4.50;2.60;;;;;;;12.62;75.07;94692.22;5083869;28;20199;-74
2023/07/28 03:22:49;;;;;;;3.45;2.53;;;;;;;12.63;75.07;94693.81;5069103;28;20281;-74
2023/07/28 03:25:16;;;;;;;5.63;2.83;;;;;;;12.82;74.97;94696.78;5069638;28;20231;-73
2023/07/28 03:27:45;;;;;;;5.03;3.05;;;;;;;13.66;73.56;94697.81;5069867;28;20195;-74
2023/07/28 03:30:11;;;;;;;3.50;2.95;;;;;;;14.79;70.01;94694.63;5069540;28;20203;-74
2023/07/28 03:32:38;;;;;;;3.85;3.00;;;;;;;16.02;66.65;94695.06;5069127;28;20235;-74
2023/07/28 03:35:07;;;;;;;3.38;2.78;;;;;;;17.12;62.44;94685.31;5068998;28;20218;-74
2023/07/28 03:37:34;;;;;;;3.42;3.03;;;;;;;17.93;60.23;94677.47;5069193;28;20561;-73
2023/07/28 03:40:01;;;;;;;4.00;2.95;;;;;;;18.47;57.52;94680.44;5069423;28;20214;-73
2023/07/28 03:42:28;;;;;;;3.60;3.00;;;;;;;19.48;54.62;94680.16;5068984;28;20303;-73
2023/07/28 03:44:56;;;;;;;2.55;2.30;;;;;;;20.44;52.58;94670.44;5068967;28;20232;-73
2023/07/28 03:47:23;;;;;;;4.03;2.78;;;;;;;21.21;50.08;94679.97;5069050;28;20206;-74
2023/07/28 03:49:50;;;;;;;4.18;2.92;;;;;;;21.36;48.97;94674.47;5069440;28;20264;-74
2023/07/28 03:52:17;;;;;;;2.53;2.20;;;;;;;21.48;48.31;94676.81;5069231;28;20741;-73
2023/07/28 03:54:44;;;;;;;2.92;2.47;;;;;;;21.86;46.98;94669.66;5068876;28;20202;-73
2023/07/28 03:57:11;;;;;;;4.07;2.58;;;;;;;21.90;46.82;94678.69;5069335;28;20202;-74
2023/07/28 03:59:38;;;;;;;3.55;2.63;;;;;;;22.38;45.45;94667.91;5058509;28;20205;-75
2023/07/28 04:02:06;;;;;;;2.50;2.30;;;;;;;22.42;44.61;94663.13;5074727;28;20650;-75
2023/07/28 04:04:33;;;;;;;3.25;2.58;;;;;;;21.83;45.58;94673.19;5062463;28;20234;-74
2023/07/28 04:07:00;;;;;;;3.92;2.90;;;;;;;21.82;46.13;94677.94;5075458;28;20298;-73
2023/07/28 04:09:27;;;;;;;5.32;2.70;;;;;;;22.00;45.26;94679.88;5081959;28;20397;-74
2023/07/28 04:11:54;;;;;;;3.50;2.35;;;;;;;22.29;45.26;94692.38;5068972;28;20631;-74
2023/07/28 04:14:21;;;;;;;4.35;2.90;;;;;;;22.08;45.38;94686.94;5068625;28;20207;-72
2023/07/28 04:16:48;;;;;;;2.45;2.25;;;;;;;22.12;45.32;94684.97;5068611;28;20667;-74
2023/07/28 04:19:16;;;;;;;3.03;2.47;;;;;;;23.19;43.07;94676.88;5068774;28;20206;-75
2023/07/28 04:21:43;;;;;;;3.65;2.40;;;;;;;24.54;41.57;94669.97;5068175;28;20223;-74
2023/07/28 04:24:11;;;;;;;3.45;2.10;;;;;;;24.89;39.82;94674.22;5068430;28;20223;-74
2023/07/28 04:26:38;;;;;;;5.20;2.30;;;;;;;25.41;38.77;94671.84;5068160;28;20234;-75
2023/07/28 04:29:05;;;;;;;3.13;2.80;;;;;;;25.31;38.91;94670.03;5068230;28;20226;-74
2023/07/28 04:31:32;;;;;;;5.50;2.40;;;;;;;25.77;38.34;94677.59;5068285;28;20230;-74
2023/07/28 04:33:58;;;;;;;3.38;2.40;;;;;;;26.30;37.00;94670.25;5069061;28;20598;-74
2023/07/28 04:36:27;;;;;;;2.63;2.42;;;;;;;26.56;36.68;94672.09;5068245;28;20670;-74
2023/07/28 04:38:54;;;;;;;4.45;2.60;;;;;;;25.38;38.21;94678.25;5068924;28;20282;-74
2023/07/28 04:41:20;;;;;;;3.83;2.53;;;;;;;27.03;35.99;94677.47;5068537;28;20234;-75
2023/07/28 04:43:47;;;;;;;3.03;2.60;;;;;;;27.26;35.41;94674.50;5068464;28;20596;-75
2023/07/28 04:46:14;;;;;;;3.90;2.72;;;;;;;27.46;34.91;94672.44;5068568;28;20658;-75
2023/07/28 04:48:41;;;;;;;4.10;2.80;;;;;;;27.16;34.96;94670.78;5068106;28;20580;-74
2023/07/28 04:51:08;;;;;;;4.05;2.63;;;;;;;27.94;34.03;94668.06;5067818;28;20203;-74
2023/07/28 04:53:36;;;;;;;5.53;2.72;;;;;;;28.19;34.13;94672.97;5068306;28;20205;-74
2023/07/28 04:56:03;;;;;;;11.02;2.65;;;;;;;29.02;32.72;94669.38;5068930;28;20211;-74
2023/07/28 04:58:30;;;;;;;3.97;2.47;;;;;;;29.37;32.16;94659.91;5068989;28;20276;-76
2023/07/28 05:00:57;;;;;;;6.50;2.60;;;;;;;29.82;30.90;94662.38;5078977;28;20199;-73
2023/07/28 05:03:24;;;;;;;2.78;2.58;;;;;;;28.94;32.41;94666.81;5068674;28;20207;-74
2023/07/28 05:05:51;;;;;;;7.18;3.08;;;;;;;28.79;32.43;94665.69;5068836;28;20651;-74
2023/07/28 05:08:18;;;;;;;7.53;2.58;;;;;;;29.43;31.89;94674.88;5068352;28;20735;-76
2023/07/28 05:10:46;;;;;;;6.28;3.03;;;;;;;27.84;33.21;94677.47;5068433;28;20253;-76
2023/07/28 05:13:13;;;;;;;5.28;2.60;;;;;;;27.05;34.14;94675.03;5069120;28;20203;-77
2023/07/28 05:15:40;;;;;;;6.47;3.50;;;;;;;27.77;33.75;94680.44;5082147;28;20596;-77
2023/07/28 05:18:06;;;;;;;5.50;2.88;;;;;;;28.09;33.60;94677.59;5068658;28;20225;-74
2023/07/28 05:20:33;;;;;;;3.75;2.47;;;;;;;27.47;34.19;94673.97;5068285;28;20210;-76
2023/07/28 05:23:00;;;;;;;4.13;2.63;;;;;;;29.19;32.37;94665.25;5068683;28;20210;-75
2023/07/28 05:25:27;;;;;;;4.88;2.80;;;;;;;28.28;32.50;94682.28;5069024;28;20227;-74
2023/07/28 05:27:55;;;;;;;7.13;2.90;;;;;;;29.34;31.51;94672.75;5072013;28;20195;-75
2023/07/28 05:30:22;;;;;;;4.85;2.97;;;;;;;28.33;32.88;94682.94;5071708;28;20249;-75
2023/07/28 05:32:49;;;;;;;3.65;3.33;;;;;;;28.36;33.31;94677.28;5071532;28;20235;-76
2023/07/28 05:35:16;;;;;;;6.00;3.22;;;;;;;29.38;32.07;94667.06;5071776;28;20214;-76
2023/07/28 05:37:42;;;;;;;7.15;4.32;;;;;;;30.23;31.33;94664.16;5071286;28;20204;-76
2023/07/28 05:40:11;;;;;;;3.63;2.63;;;;;;;29.37;30.90;94671.06;5071595;28;20210;-76
2023/07/28 05:42:37;;;;;;;6.78;2.92;;;;;;;29.72;31.25;94673.94;5071634;28;20236;-75
2023/07/28 05:45:07;;;;;;;4.47;3.13;;;;;;;29.03;31.83;94674.53;5084237;28;20223;-76
2023/07/28 05:47:34;;;;;;;4.22;3.30;;;;;;;28.07;32.44;94682.81;5066188;28;20214;-75
2023/07/28 05:50:01;;;;;;;6.57;3.75;;;;;;;27.11;33.42;94673.28;5071503;28;20216;-76
2023/07/28 05:52:28;;;;;;;4.90;2.92;;;;;;;26.90;34.06;94669.75;5071564;28;20222;-75
2023/07/28 05:54:55;;;;;;;6.55;3.30;;;;;;;25.58;35.68;94672.75;5071558;28;20195;-76
2023/07/28 05:57:22;;;;;;;6.20;3.55;;;;;;;26.29;35.08;94668.69;5071376;28;20697;-77
2023/07/28 05:59:49;;;;;;;6.97;3.78;;;;;;;27.56;33.62;94662.28;5075731;28;20566;-76
2023/07/28 06:02:17;;;;;;;6.45;4.20;;;;;;;26.36;35.69;94663.00;5076886;28;20268;-76
2023/07/28 06:04:44;;;;;;;6.88;4.00;;;;;;;26.07;36.32;94663.53;5070638;28;20265;-75
2023/07/28 06:07:11;;;;;;;4.13;3.53;;;;;;;26.19;35.58;94660.13;5072910;28;20207;-75
2023/07/28 06:09:39;;;;;;;6.40;4.30;;;;;;;26.96;34.26;94656.16;5070943;28;20195;-75
2023/07/28 06:12:06;;;;;;;10.15;4.40;;;;;;;26.81;35.10;94652.88;5070889;28;20199;-76
2023/07/28 06:14:33;;;;;;;5.68;3.80;;;;;;;27.86;33.45;94658.34;5070742;28;20249;-74
2023/07/28 06:17:00;;;;;;;9.15;3.63;;;;;;;28.53;33.33;94641.75;5070879;28;20497;-76
2023/07/28 06:19:28;;;;;;;6.38;4.20;;;;;;;27.57;34.08;94656.28;5070626;28;20225;-75
2023/07/28 06:21:55;;;;;;;4.82;3.20;;;;;;;26.50;34.97;94655.16;5071287;28;20206;-77
2023/07/28 06:24:22;;;;;;;4.28;2.33;;;;;;;27.55;33.24;94658.69;5071013;28;20253;-76
2023/07/28 06:26:50;;;;;;;4.78;2.70;;;;;;;29.44;31.14;94642.94;5084802;28;20252;-75
2023/07/28 06:29:17;;;;;;;5.85;2.60;;;;;;;29.28;31.16;94635.44;5070567;28;20277;-76
2023/07/28 06:31:43;;;;;;;6.40;2.58;;;;;;;29.50;30.84;94643.94;5069566;28;20227;-75
2023/07/28 06:34:10;;;;;;;3.58;2.47;;;;;;;29.93;29.77;94645.28;5067253;28;20203;-75
2023/07/28 06:36:39;;;;;;;4.97;2.47;;;;;;;29.40;30.38;94639.47;5068700;28;20643;-75
2023/07/28 06:39:06;;;;;;;3.03;2.22;;;;;;;31.05;28.37;94633.94;5069284;28;20202;-74
2023/07/28 06:41:33;;;;;;;3.83;2.85;;;;;;;29.11;30.57;94644.41;5067618;28;20519;-75
2023/07/28 06:44:00;;;;;;;7.25;2.90;;;;;;;28.66;32.06;94639.75;5070060;28;20203;-75
2023/07/28 06:46:28;;;;;;;4.90;2.92;;;;;;;28.54;33.27;94640.53;5068965;28;20245;-75
2023/07/28 06:48:54;;;;;;;7.95;3.88;;;;;;;27.62;33.09;94646.59;5068836;28;20191;-75
2023/07/28 06:51:21;;;;;;;5.43;3.55;;;;;;;29.11;31.41;94641.63;5069563;28;20200;-76
2023/07/28 06:53:50;;;;;;;6.32;3.17;;;;;;;29.12;32.49;94643.16;5069007;28;20650;-76
2023/07/28 06:56:17;;;;;;;10.05;4.07;;;;;;;27.39;33.47;94653.13;5069632;28;20227;-75
2023/07/28 06:58:44;;;;;;;5.30;3.17;;;;;;;29.22;31.42;94645.63;5070152;28;20202;-76
2023/07/28 07:01:11;;;;;;;3.80;2.53;;;;;;;29.58;30.80;94642.47;5070951;28;20257;-76
2023/07/28 07:03:38;;;;;;;4.30;2.35;;;;;;;29.69;31.09;94642.09;5069232;28;20608;-75
2023/07/28 07:06:07;;;;;;;2.83;2.20;;;;;;;30.38;29.54;94640.06;5068841;28;20237;-76
2023/07/28 07:08:34;;;;;;;4.25;2.60;;;;;;;31.20;28.54;94639.00;5069269;28;20818;-75
2023/07/28 07:11:03;;;;;;;4.82;2.42;;;;;;;30.94;28.83;94639.16;5069803;28;20199;-75
2023/07/28 07:13:30;;;;;;;3.67;2.75;;;;;;;28.46;31.75;94653.09;5070073;28;20293;-75
2023/07/28 07:15:56;;;;;;;4.63;2.50;;;;;;;28.88;31.62;94645.50;5063387;28;20229;-74
2023/07/28 07:18:23;;;;;;;5.18;2.50;;;;;;;29.69;30.96;94633.72;5076734;28;20203;-73
2023/07/28 07:20:51;;;;;;;5.53;2.58;;;;;;;30.52;29.78;94630.34;5056883;28;20203;-75
2023/07/28 07:23:17;;;;;;;5.22;3.00;;;;;;;29.06;30.91;94644.94;5069382;28;20203;-76
2023/07/28 07:25:44;;;;;;;6.55;2.80;;;;;;;29.35;31.20;94645.59;5069858;28;20391;-76
2023/07/28 07:28:13;;;;;;;6.50;2.70;;;;;;;30.35;30.08;94640.19;5069204;28;20597;-76
2023/07/28 07:30:40;;;;;;;6.03;3.08;;;;;;;29.14;30.87;94640.69;5069654;28;20298;-81
2023/07/28 07:33:07;;;;;;;3.83;2.92;;;;;;;27.48;33.02;94658.84;5069420;28;20241;-77
2023/07/28 07:35:37;;;;;;;4.43;3.10;;;;;;;27.19;33.83;94664.34;5069247;28;20562;-74
2023/07/28 07:38:04;;;;;;;4.95;2.92;;;;;;;28.09;32.59;94660.88;5069351;28;20199;-76
2023/07/28 07:40:31;;;;;;;4.55;2.88;;;;;;;28.64;31.92;94653.38;5069981;28;20211;-76
2023/07/28 07:42:58;;;;;;;6.70;3.28;;;;;;;28.39;32.38;94658.88;5069062;28;20217;-74
2023/07/28 07:45:26;;;;;;;4.65;2.97;;;;;;;27.79;33.01;94666.84;5068980;28;20222;-75
2023/07/28 07:47:54;;;;;;;4.28;3.35;;;;;;;28.64;32.45;94647.78;5068176;28;20203;-75
2023/07/28 07:50:21;;;;;;;4.05;3.10;;;;;;;28.43;32.66;94654.00;5068428;28;20203;-74
2023/07/28 07:52:49;;;;;;;5.30;3.42;;;;;;;27.58;33.82;94662.63;5068056;28;20221;-73
2023/07/28 07:55:16;;;;;;;6.45;3.47;;;;;;;26.03;36.57;94668.38;5068930;28;20206;-73
2023/07/28 07:57:43;;;;;;;7.22;3.92;;;;;;;25.69;38.09;94670.63;5068576;28;20548;-74
2023/07/28 08:00:11;;;;;;;6.03;3.15;;;;;;;25.72;37.54;94658.63;5074233;28;20198;-76
2023/07/28 08:02:40;;;;;;;5.90;3.67;;;;;;;26.05;36.26;94673.50;5070081;28;20230;-75
2023/07/28 08:05:07;;;;;;;5.72;3.22;;;;;;;25.64;37.36;94668.31;5068187;28;20218;-73
2023/07/28 08:07:34;;;;;;;5.07;3.35;;;;;;;25.72;37.07;94661.41;5070539;28;20248;-73
2023/07/28 08:10:01;;;;;;;4.10;3.22;;;;;;;25.56;37.51;94662.06;5069015;28;20204;-76
2023/07/28 08:12:28;;;;;;;9.23;3.53;;;;;;;25.31;37.38;94662.47;5065058;28;20222;-74
2023/07/28 08:14:54;;;;;;;5.43;3.67;;;;;;;25.84;36.99;94652.47;5068539;28;20281;-75
2023/07/28 08:17:21;;;;;;;5.93;3.50;;;;;;;25.61;36.88;94658.84;5063023;28;20204;-74
2023/07/28 08:19:49;;;;;;;4.45;3.20;;;;;;;25.99;36.82;94653.75;5066187;28;20214;-74
2023/07/28 08:22:16;;;;;;;5.25;3.22;;;;;;;25.99;36.28;94651.00;5067208;28;20199;-73
2023/07/28 08:24:43;;;;;;;3.67;3.03;;;;;;;25.64;37.32;94651.66;5068464;28;20511;-76
2023/07/28 08:27:10;;;;;;;3.75;2.90;;;;;;;24.51;38.95;94649.41;5068735;28;20237;-75
2023/07/28 08:29:36;;;;;;;5.45;2.58;;;;;;;25.64;38.61;94651.66;5068631;28;20285;-74
2023/07/28 08:32:03;;;;;;;6.93;3.40;;;;;;;25.72;37.00;94656.66;5054746;28;20231;-77
2023/07/28 08:34:30;;;;;;;5.28;3.22;;;;;;;24.69;39.09;94655.50;5068540;28;20203;-73
2023/07/28 08:36:58;;;;;;;4.38;3.28;;;;;;;25.59;37.45;94655.66;5068697;28;20692;-75
2023/07/28 08:39:25;;;;;;;7.53;3.35;;;;;;;26.28;37.57;94644.88;5067655;28;20595;-74
2023/07/28 08:41:59;;;;;;;5.00;2.50;;;;;;;26.05;36.12;94654.84;5068561;28;20627;-76
2023/07/28 08:44:26;;;;;;;4.72;2.53;;;;;;;26.06;36.88;94650.88;5068692;28;20287;-76
2023/07/28 08:46:53;;;;;;;4.55;3.30;;;;;;;25.93;37.61;94649.94;5068534;28;20751;-75
2023/07/28 08:49:21;;;;;;;5.53;2.90;;;;;;;26.19;36.58;94642.69;5068004;28;20609;-74
2023/07/28 08:51:50;;;;;;;3.30;2.80;;;;;;;25.89;37.14;94640.88;5060716;28;20203;-75
2023/07/28 08:54:18;;;;;;;3.67;2.70;;;;;;;25.12;38.72;94643.81;5068647;28;21534;-75
2023/07/28 08:56:45;;;;;;;6.05;2.95;;;;;;;25.56;38.34;94639.09;5068351;28;20606;-74
2023/07/28 08:59:12;;;;;;;4.75;3.25;;;;;;;26.15;37.63;94631.63;5068491;28;20622;-74
2023/07/28 09:01:40;;;;;;;4.68;2.85;;;;;;;25.61;37.48;94635.81;5080678;28;20203;-74
2023/07/28 09:04:11;;;;;;;5.88;3.42;;;;;;;25.84;37.23;94622.72;5071178;28;20222;-74
2023/07/28 09:06:38;;;;;;;5.85;2.90;;;;;;;25.36;38.05;94620.41;5063253;28;20609;-74
2023/07/28 09:09:08;;;;;;;5.18;2.97;;;;;;;26.13;37.21;94611.84;5070922;28;20199;-73
2023/07/28 09:11:45;;;;;;;3.45;2.67;;;;;;;25.53;37.21;94621.31;5071576;28;20199;-74
2023/07/28 09:14:13;;;;;;;4.60;3.10;;;;;;;25.34;38.19;94605.41;5072672;28;20273;-74
2023/07/28 09:16:40;;;;;;;3.50;2.67;;;;;;;25.29;38.21;94609.44;5072059;28;20609;-74
2023/07/28 09:19:08;;;;;;;6.00;2.95;;;;;;;25.42;37.31;94606.84;5072211;28;20203;-73
2023/07/28 09:21:35;;;;;;;5.95;2.47;;;;;;;25.22;38.37;94595.69;5071623;28;20268;-75
2023/07/28 09:24:05;;;;;;;5.20;2.97;;;;;;;25.39;38.06;94596.59;5071918;28;20203;-73
2023/07/28 09:26:39;;;;;;;3.53;2.78;;;;;;;25.66;37.40;94582.66;5071652;28;20223;-74
2023/07/28 09:29:14;;;;;;;4.28;2.92;;;;;;;26.06;36.86;94581.44;5071807;28;20716;-74
2023/07/28 09:31:41;;;;;;;4.03;2.70;;;;;;;26.60;36.92;94578.31;5071092;28;20833;-74
2023/07/28 09:34:09;;;;;;;3.90;2.92;;;;;;;26.81;35.82;94577.03;5072217;28;20203;-74
2023/07/28 09:36:38;;;;;;;3.15;2.85;;;;;;;26.85;35.85;94570.19;5071954;28;20290;-75
2023/07/28 09:39:07;;;;;;;5.38;3.00;;;;;;;27.34;35.00;94559.03;5071861;28;20207;-74
2023/07/28 09:41:35;;;;;;;3.70;2.63;;;;;;;26.92;35.78;94557.34;5070697;28;20219;-74
2023/07/28 09:44:03;;;;;;;3.38;2.63;;;;;;;27.46;35.54;94549.22;5071358;28;20676;-74
2023/07/28 09:46:33;;;;;;;3.78;3.13;;;;;;;27.76;34.21;94550.78;5066110;28;20227;-73
2023/07/28 09:49:04;;;;;;;5.35;2.95;;;;;;;28.07;33.91;94537.97;5071297;28;20207;-73
2023/07/28 09:51:32;;;;;;;3.75;2.63;;;;;;;27.45;33.72;94544.88;5057986;28;20783;-74
2023/07/28 09:54:05;;;;;;;4.18;3.20;;;;;;;27.32;33.93;94555.16;5071285;28;20203;-71
2023/07/28 09:56:32;;;;;;;7.75;2.50;;;;;;;27.08;34.76;94554.56;5070975;28;20654;-75
2023/07/28 09:59:00;;;;;;;4.72;2.90;;;;;;;26.88;35.22;94552.63;5071263;28;20209;-74
2023/07/28 10:01:29;;;;;;;5.90;2.88;;;;;;;27.09;35.39;94545.00;5079742;28;20199;-74
2023/07/28 10:03:57;;;;;;;2.85;2.47;;;;;;;27.79;35.07;94544.34;5070982;28;20675;-74
2023/07/28 10:06:24;;;;;;;4.63;2.88;;;;;;;27.72;34.21;94542.56;5081093;28;20705;-75
2023/07/28 10:08:51;;;;;;;8.38;2.63;;;;;;;28.11;33.61;94533.06;5074312;28;20208;-73
2023/07/28 10:11:18;;;;;;;4.82;2.80;;;;;;;28.39;33.64;94525.13;5067621;28;20662;-73
2023/07/28 10:13:47;;;;;;;4.32;2.30;;;;;;;28.98;31.86;94525.19;5070865;28;20206;-74
2023/07/28 10:16:14;;;;;;;3.38;2.30;;;;;;;28.43;32.91;94520.22;5071362;28;20221;-73
2023/07/28 10:18:57;;;;;;;6.30;2.75;;;;;;;28.55;32.16;94522.22;5071065;28;20226;-75
2023/07/28 10:22:24;;;;;;;;;;;;;;;;;;;;;
2023/07/28 10:25:05;;;;;;;6.00;3.25;;;;;;;27.80;33.50;94523.63;4969558;28;20220;-75
2023/07/28 10:27:35;;;;;;;3.35;2.42;;;;;;;27.27;33.77;94520.28;5041543;28;20234;-74
2023/07/28 10:30:05;;;;;;;3.42;2.63;;;;;;;27.66;33.99;94524.81;5070207;28;20224;-75
2023/07/28 10:32:39;;;;;;;3.72;2.55;;;;;;;28.05;32.83;94520.91;5070100;28;20350;-74
2023/07/28 10:35:10;;;;;;;4.30;2.35;;;;;;;27.84;33.68;94507.63;5071154;28;20281;-73
2023/07/28 10:37:37;;;;;;;4.13;2.50;;;;;;;27.85;34.06;94514.75;5069929;28;20187;-74
2023/07/28 10:40:23;;;;;;;5.18;3.10;;;;;;;27.59;34.01;94516.69;5070429;28;20666;-73
2023/07/28 10:42:50;;;;;;;6.10;2.78;;;;;;;27.34;33.32;94514.53;5070762;28;20203;-74
2023/07/28 10:45:18;;;;;;;2.90;2.60;;;;;;;27.49;33.68;94507.34;5070475;28;20222;-74
2023/07/28 10:47:45;;;;;;;2.97;2.60;;;;;;;27.78;33.54;94504.59;5066044;28;20223;-74
2023/07/28 10:50:13;;;;;;;2.95;2.58;;;;;;;27.83;32.77;94494.91;5071062;28;20206;-75
2023/07/28 10:52:40;;;;;;;3.20;2.90;;;;;;;27.29;33.26;94489.25;5070624;28;20283;-72
2023/07/28 10:55:14;;;;;;;3.53;2.60;;;;;;;27.40;33.47;94490.53;5070685;28;20313;-75
2023/07/28 10:57:42;;;;;;;4.95;2.88;;;;;;;27.92;34.66;94483.91;5070297;28;20231;-75
2023/07/28 11:00:11;;;;;;;4.72;2.40;;;;;;;27.37;33.46;94491.38;5077657;28;20198;-74
2023/07/28 11:02:40;;;;;;;5.20;2.50;;;;;;;27.63;33.21;94488.72;5072455;28;20203;-74
2023/07/28 11:05:12;;;;;;;5.10;2.53;;;;;;;27.97;32.93;94472.22;5070547;28;20279;-74
2023/07/28 11:07:43;;;;;;;7.80;2.72;;;;;;;28.06;32.48;94469.53;5069915;28;21018;-74
2023/07/28 11:10:11;;;;;;;4.05;2.40;;;;;;;27.86;32.74;94478.13;5070120;28;20282;-74
2023/07/28 11:12:42;;;;;;;6.20;2.65;;;;;;;28.09;32.15;94467.88;5070403;28;20264;-74
2023/07/28 11:15:11;;;;;;;4.05;3.00;;;;;;;28.07;32.62;94465.53;5069620;28;20327;-73
2023/07/28 11:17:39;;;;;;;4.78;2.72;;;;;;;27.72;32.10;94452.69;5069616;28;20272;-74
2023/07/28 11:20:15;;;;;;;5.88;2.63;;;;;;;27.28;33.20;94460.66;5069448;28;20254;-74
2023/07/28 11:22:44;;;;;;;5.03;2.67;;;;;;;27.79;33.42;94446.91;5069183;28;20187;-74
2023/07/28 11:25:11;;;;;;;3.97;2.50;;;;;;;28.36;32.10;94442.41;5069666;28;20199;-74
2023/07/28 11:27:38;;;;;;;3.70;2.60;;;;;;;27.93;32.74;94443.69;5069843;28;20235;-73
2023/07/28 11:30:09;;;;;;;3.58;2.63;;;;;;;28.18;32.83;94438.16;5069546;28;20202;-74
2023/07/28 11:32:36;;;;;;;4.57;2.45;;;;;;;28.74;32.72;94434.75;5069129;28;20542;-73
2023/07/28 11:35:05;;;;;;;4.68;2.58;;;;;;;28.76;31.61;94437.88;5072694;28;20690;-74
2023/07/28 11:37:33;;;;;;;5.88;2.33;;;;;;;28.93;31.28;94425.38;5089769;28;20202;-73